sensor_id;sensor_type;location;lat;lon;timestamp;P1;durP1;ratioP1;P2;durP2;ratioP2
11334;SDS011;5722;42.620;23.374;2023-03-21T00:02:17;8.73;;;5.63;;
11334;SDS011;5722;42.620;23.374;2023-03-21T00:04:49;11.00;;;5.87;;
11334;SDS011;5722;42.620;23.374;2023-03-21T00:07:19;8.23;;;6.10;;
11334;SDS011;5722;42.620;23.374;2023-03-21T00:09:47;10.97;;;6.10;;
11334;SDS011;5722;42.620;23.374;2023-03-21T00:12:18;8.23;;;5.50;;
11334;SDS011;5722;42.620;23.374;2023-03-21T00:14:47;7.77;;;5.10;;
11334;SDS011;5722;42.620;23.374;2023-03-21T00:17:39;16.60;;;8.37;;
11334;SDS011;5722;42.620;23.374;2023-03-21T00:20:09;19.67;;;11.40;;
11334;SDS011;5722;42.620;23.374;2023-03-21T00:22:44;14.00;;;9.13;;
11334;SDS011;5722;42.620;23.374;2023-03-21T00:25:15;16.73;;;10.37;;
11334;SDS011;5722;42.620;23.374;2023-03-21T00:27:49;10.27;;;6.97;;
11334;SDS011;5722;42.620;23.374;2023-03-21T00:30:20;14.87;;;7.90;;
11334;SDS011;5722;42.620;23.374;2023-03-21T00:32:53;18.77;;;8.73;;
11334;SDS011;5722;42.620;23.374;2023-03-21T00:35:24;14.93;;;10.00;;
11334;SDS011;5722;42.620;23.374;2023-03-21T00:37:58;14.73;;;10.53;;
11334;SDS011;5722;42.620;23.374;2023-03-21T00:40:29;13.93;;;10.20;;
11334;SDS011;5722;42.620;23.374;2023-03-21T00:42:58;17.43;;;10.73;;
11334;SDS011;5722;42.620;23.374;2023-03-21T00:45:28;18.03;;;11.53;;
11334;SDS011;5722;42.620;23.374;2023-03-21T00:50:46;13.57;;;9.90;;
11334;SDS011;5722;42.620;23.374;2023-03-21T00:53:14;14.80;;;10.67;;
11334;SDS011;5722;42.620;23.374;2023-03-21T00:55:44;14.50;;;10.63;;
11334;SDS011;5722;42.620;23.374;2023-03-21T00:58:24;16.40;;;10.47;;
11334;SDS011;5722;42.620;23.374;2023-03-21T01:01:05;16.27;;;10.53;;
11334;SDS011;5722;42.620;23.374;2023-03-21T01:03:36;17.63;;;11.33;;
11334;SDS011;5722;42.620;23.374;2023-03-21T01:06:14;15.77;;;11.40;;
11334;SDS011;5722;42.620;23.374;2023-03-21T01:08:50;17.23;;;11.90;;
11334;SDS011;5722;42.620;23.374;2023-03-21T01:11:23;15.63;;;11.57;;
11334;SDS011;5722;42.620;23.374;2023-03-21T01:13:51;17.37;;;10.93;;
11334;SDS011;5722;42.620;23.374;2023-03-21T01:16:24;14.83;;;10.83;;
11334;SDS011;5722;42.620;23.374;2023-03-21T01:18:52;19.17;;;10.80;;
11334;SDS011;5722;42.620;23.374;2023-03-21T01:21:22;15.03;;;10.37;;
11334;SDS011;5722;42.620;23.374;2023-03-21T01:23:57;14.70;;;10.20;;
11334;SDS011;5722;42.620;23.374;2023-03-21T01:26:27;18.23;;;11.37;;
11334;SDS011;5722;42.620;23.374;2023-03-21T01:28:55;17.33;;;10.97;;
11334;SDS011;5722;42.620;23.374;2023-03-21T01:31:48;18.27;;;10.53;;
11334;SDS011;5722;42.620;23.374;2023-03-21T01:34:29;12.67;;;9.33;;
11334;SDS011;5722;42.620;23.374;2023-03-21T01:37:01;12.73;;;8.67;;
11334;SDS011;5722;42.620;23.374;2023-03-21T01:39:31;15.40;;;8.63;;
11334;SDS011;5722;42.620;23.374;2023-03-21T01:42:00;13.77;;;9.60;;
11334;SDS011;5722;42.620;23.374;2023-03-21T01:44:28;14.93;;;8.47;;
11334;SDS011;5722;42.620;23.374;2023-03-21T01:46:58;12.40;;;8.40;;
11334;SDS011;5722;42.620;23.374;2023-03-21T01:49:29;18.60;;;9.30;;
11334;SDS011;5722;42.620;23.374;2023-03-21T01:52:01;10.70;;;7.63;;
11334;SDS011;5722;42.620;23.374;2023-03-21T01:54:47;12.47;;;8.93;;
11334;SDS011;5722;42.620;23.374;2023-03-21T01:57:19;17.27;;;9.17;;
11334;SDS011;5722;42.620;23.374;2023-03-21T01:59:54;27.53;;;17.00;;
11334;SDS011;5722;42.620;23.374;2023-03-21T02:02:23;23.63;;;13.67;;
11334;SDS011;5722;42.620;23.374;2023-03-21T02:04:52;16.53;;;10.73;;
11334;SDS011;5722;42.620;23.374;2023-03-21T02:10:09;12.43;;;9.50;;
11334;SDS011;5722;42.620;23.374;2023-03-21T02:12:40;13.40;;;9.00;;
11334;SDS011;5722;42.620;23.374;2023-03-21T02:15:26;17.57;;;9.90;;
11334;SDS011;5722;42.620;23.374;2023-03-21T02:18:05;13.53;;;10.00;;
11334;SDS011;5722;42.620;23.374;2023-03-21T02:26:50;10.17;;;6.80;;
11334;SDS011;5722;42.620;23.374;2023-03-21T02:29:33;8.77;;;6.07;;
11334;SDS011;5722;42.620;23.374;2023-03-21T02:32:06;10.73;;;6.53;;
11334;SDS011;5722;42.620;23.374;2023-03-21T02:34:44;10.47;;;6.13;;
11334;SDS011;5722;42.620;23.374;2023-03-21T02:37:23;9.93;;;6.10;;
11334;SDS011;5722;42.620;23.374;2023-03-21T02:40:04;8.20;;;5.83;;
11334;SDS011;5722;42.620;23.374;2023-03-21T02:42:52;8.70;;;5.50;;
11334;SDS011;5722;42.620;23.374;2023-03-21T02:45:44;10.23;;;5.57;;
11334;SDS011;5722;42.620;23.374;2023-03-21T02:48:20;9.37;;;5.57;;
11334;SDS011;5722;42.620;23.374;2023-03-21T02:50:50;6.87;;;5.33;;
11334;SDS011;5722;42.620;23.374;2023-03-21T02:53:23;6.70;;;5.50;;
11334;SDS011;5722;42.620;23.374;2023-03-21T02:55:58;8.40;;;5.63;;
11334;SDS011;5722;42.620;23.374;2023-03-21T02:58:35;9.37;;;5.70;;
11334;SDS011;5722;42.620;23.374;2023-03-21T03:01:03;6.87;;;5.20;;
11334;SDS011;5722;42.620;23.374;2023-03-21T03:03:36;8.93;;;5.70;;
11334;SDS011;5722;42.620;23.374;2023-03-21T03:06:07;7.87;;;5.27;;
11334;SDS011;5722;42.620;23.374;2023-03-21T03:08:43;6.70;;;5.60;;
11334;SDS011;5722;42.620;23.374;2023-03-21T03:11:16;10.57;;;6.10;;
11334;SDS011;5722;42.620;23.374;2023-03-21T03:16:38;7.40;;;5.87;;
11334;SDS011;5722;42.620;23.374;2023-03-21T03:19:20;8.63;;;6.40;;
11334;SDS011;5722;42.620;23.374;2023-03-21T03:21:58;7.30;;;5.80;;
11334;SDS011;5722;42.620;23.374;2023-03-21T03:27:39;10.43;;;7.73;;
11334;SDS011;5722;42.620;23.374;2023-03-21T03:30:10;13.53;;;9.07;;
11334;SDS011;5722;42.620;23.374;2023-03-21T03:32:40;12.30;;;8.50;;
11334;SDS011;5722;42.620;23.374;2023-03-21T03:35:09;13.53;;;8.07;;
11334;SDS011;5722;42.620;23.374;2023-03-21T03:37:48;13.90;;;7.83;;
11334;SDS011;5722;42.620;23.374;2023-03-21T03:40:25;14.03;;;7.87;;
11334;SDS011;5722;42.620;23.374;2023-03-21T03:42:57;11.93;;;7.80;;
11334;SDS011;5722;42.620;23.374;2023-03-21T03:45:30;12.03;;;7.73;;
11334;SDS011;5722;42.620;23.374;2023-03-21T03:48:05;10.43;;;7.53;;
11334;SDS011;5722;42.620;23.374;2023-03-21T03:50:38;12.53;;;8.27;;
11334;SDS011;5722;42.620;23.374;2023-03-21T03:53:24;13.37;;;8.83;;
11334;SDS011;5722;42.620;23.374;2023-03-21T03:55:55;14.07;;;8.07;;
11334;SDS011;5722;42.620;23.374;2023-03-21T03:58:31;13.00;;;8.97;;
11334;SDS011;5722;42.620;23.374;2023-03-21T04:01:15;13.13;;;8.57;;
11334;SDS011;5722;42.620;23.374;2023-03-21T04:03:44;13.17;;;9.33;;
11334;SDS011;5722;42.620;23.374;2023-03-21T04:06:17;13.27;;;8.93;;
11334;SDS011;5722;42.620;23.374;2023-03-21T04:08:51;10.53;;;8.00;;
11334;SDS011;5722;42.620;23.374;2023-03-21T04:11:24;10.20;;;7.90;;
11334;SDS011;5722;42.620;23.374;2023-03-21T04:14:06;11.60;;;7.07;;
11334;SDS011;5722;42.620;23.374;2023-03-21T04:19:37;17.07;;;9.37;;
11334;SDS011;5722;42.620;23.374;2023-03-21T04:22:21;12.83;;;8.23;;
11334;SDS011;5722;42.620;23.374;2023-03-21T04:24:55;10.17;;;7.43;;
11334;SDS011;5722;42.620;23.374;2023-03-21T04:27:24;12.40;;;7.57;;
11334;SDS011;5722;42.620;23.374;2023-03-21T04:30:06;11.03;;;6.60;;
11334;SDS011;5722;42.620;23.374;2023-03-21T04:33:10;11.77;;;6.83;;
11334;SDS011;5722;42.620;23.374;2023-03-21T04:35:47;10.00;;;7.07;;
11334;SDS011;5722;42.620;23.374;2023-03-21T04:38:31;9.63;;;6.73;;
11334;SDS011;5722;42.620;23.374;2023-03-21T04:41:14;11.53;;;6.87;;
11334;SDS011;5722;42.620;23.374;2023-03-21T04:43:49;9.63;;;7.43;;
11334;SDS011;5722;42.620;23.374;2023-03-21T04:46:22;9.70;;;6.60;;
11334;SDS011;5722;42.620;23.374;2023-03-21T04:48:54;13.10;;;8.00;;
11334;SDS011;5722;42.620;23.374;2023-03-21T04:51:23;17.13;;;11.30;;
11334;SDS011;5722;42.620;23.374;2023-03-21T04:53:52;18.13;;;11.93;;
11334;SDS011;5722;42.620;23.374;2023-03-21T04:59:20;31.70;;;18.03;;
11334;SDS011;5722;42.620;23.374;2023-03-21T06:02:39;22.03;;;14.33;;
11334;SDS011;5722;42.620;23.374;2023-03-21T06:05:13;10.93;;;7.27;;
11334;SDS011;5722;42.620;23.374;2023-03-21T06:08:03;25.30;;;14.53;;
11334;SDS011;5722;42.620;23.374;2023-03-21T06:10:31;26.33;;;14.17;;
11334;SDS011;5722;42.620;23.374;2023-03-21T06:13:04;25.23;;;12.17;;
11334;SDS011;5722;42.620;23.374;2023-03-21T06:15:48;15.10;;;8.90;;
11334;SDS011;5722;42.620;23.374;2023-03-21T06:21:08;18.07;;;7.57;;
11334;SDS011;5722;42.620;23.374;2023-03-21T06:26:24;10.63;;;6.43;;
11334;SDS011;5722;42.620;23.374;2023-03-21T06:29:06;15.97;;;7.53;;
11334;SDS011;5722;42.620;23.374;2023-03-21T06:31:52;14.27;;;7.27;;
11334;SDS011;5722;42.620;23.374;2023-03-21T06:34:29;18.13;;;8.07;;
11334;SDS011;5722;42.620;23.374;2023-03-21T06:45:44;15.90;;;7.70;;
11334;SDS011;5722;42.620;23.374;2023-03-21T06:48:23;11.10;;;7.20;;
11334;SDS011;5722;42.620;23.374;2023-03-21T06:50:51;24.33;;;7.63;;
11334;SDS011;5722;42.620;23.374;2023-03-21T06:53:23;16.37;;;8.13;;
11334;SDS011;5722;42.620;23.374;2023-03-21T06:55:54;15.23;;;7.13;;
11334;SDS011;5722;42.620;23.374;2023-03-21T06:58:29;14.23;;;7.77;;
11334;SDS011;5722;42.620;23.374;2023-03-21T07:06:41;12.73;;;8.00;;
11334;SDS011;5722;42.620;23.374;2023-03-21T07:09:15;20.97;;;8.80;;
11334;SDS011;5722;42.620;23.374;2023-03-21T07:11:48;14.93;;;8.87;;
11334;SDS011;5722;42.620;23.374;2023-03-21T07:14:26;19.67;;;9.37;;
11334;SDS011;5722;42.620;23.374;2023-03-21T07:17:09;14.30;;;8.90;;
11334;SDS011;5722;42.620;23.374;2023-03-21T07:19:51;21.17;;;9.43;;
11334;SDS011;5722;42.620;23.374;2023-03-21T07:25:19;13.90;;;8.87;;
11334;SDS011;5722;42.620;23.374;2023-03-21T07:27:51;22.77;;;8.10;;
11334;SDS011;5722;42.620;23.374;2023-03-21T07:30:23;13.73;;;7.37;;
11334;SDS011;5722;42.620;23.374;2023-03-21T07:32:57;17.70;;;7.87;;
11334;SDS011;5722;42.620;23.374;2023-03-21T07:35:33;16.50;;;8.37;;
11334;SDS011;5722;42.620;23.374;2023-03-21T07:38:14;16.30;;;8.40;;
11334;SDS011;5722;42.620;23.374;2023-03-21T07:46:40;14.73;;;9.83;;
11334;SDS011;5722;42.620;23.374;2023-03-21T07:49:09;21.13;;;9.30;;
11334;SDS011;5722;42.620;23.374;2023-03-21T07:51:50;17.23;;;9.70;;
11334;SDS011;5722;42.620;23.374;2023-03-21T07:54:43;52.47;;;11.00;;
11334;SDS011;5722;42.620;23.374;2023-03-21T07:57:17;23.23;;;9.93;;
11334;SDS011;5722;42.620;23.374;2023-03-21T07:59:59;41.10;;;12.07;;
11334;SDS011;5722;42.620;23.374;2023-03-21T08:05:45;20.23;;;9.63;;
11334;SDS011;5722;42.620;23.374;2023-03-21T08:08:12;16.13;;;9.90;;
11334;SDS011;5722;42.620;23.374;2023-03-21T08:10:57;24.13;;;10.50;;
11334;SDS011;5722;42.620;23.374;2023-03-21T08:13:41;18.33;;;10.50;;
11334;SDS011;5722;42.620;23.374;2023-03-21T08:16:21;19.00;;;10.00;;
11334;SDS011;5722;42.620;23.374;2023-03-21T08:19:04;17.60;;;9.73;;
11334;SDS011;5722;42.620;23.374;2023-03-21T08:21:46;19.17;;;9.97;;
11334;SDS011;5722;42.620;23.374;2023-03-21T08:27:19;17.60;;;10.40;;
11334;SDS011;5722;42.620;23.374;2023-03-21T08:30:06;17.53;;;9.43;;
11334;SDS011;5722;42.620;23.374;2023-03-21T08:32:47;20.53;;;9.63;;
11334;SDS011;5722;42.620;23.374;2023-03-21T08:35:30;15.37;;;9.90;;
11334;SDS011;5722;42.620;23.374;2023-03-21T09:45:15;22.70;;;10.88;;
11334;SDS011;5722;42.620;23.374;2023-03-21T09:47:45;23.35;;;10.85;;
11334;SDS011;5722;42.620;23.374;2023-03-21T09:50:25;21.40;;;11.05;;
11334;SDS011;5722;42.620;23.374;2023-03-21T09:52:58;20.35;;;10.95;;
11334;SDS011;5722;42.620;23.374;2023-03-21T09:55:39;22.95;;;11.85;;
11334;SDS011;5722;42.620;23.374;2023-03-21T09:58:18;24.65;;;11.38;;
11334;SDS011;5722;42.620;23.374;2023-03-21T10:00:59;19.98;;;10.88;;
11334;SDS011;5722;42.620;23.374;2023-03-21T10:03:28;22.88;;;11.00;;
11334;SDS011;5722;42.620;23.374;2023-03-21T10:05:57;20.33;;;11.95;;
11334;SDS011;5722;42.620;23.374;2023-03-21T10:08:30;21.83;;;11.90;;
11334;SDS011;5722;42.620;23.374;2023-03-21T10:11:02;19.10;;;11.35;;
11334;SDS011;5722;42.620;23.374;2023-03-21T10:13:40;39.15;;;11.55;;
11334;SDS011;5722;42.620;23.374;2023-03-21T10:16:27;21.63;;;11.15;;
11334;SDS011;5722;42.620;23.374;2023-03-21T10:32:26;17.33;;;11.98;;
11334;SDS011;5722;42.620;23.374;2023-03-21T10:34:54;8.60;;;5.30;;
11334;SDS011;5722;42.620;23.374;2023-03-21T10:37:30;14.23;;;8.15;;
11334;SDS011;5722;42.620;23.374;2023-03-21T10:40:05;14.02;;;8.98;;
11334;SDS011;5722;42.620;23.374;2023-03-21T10:42:35;14.60;;;7.63;;
11334;SDS011;5722;42.620;23.374;2023-03-21T10:45:13;13.75;;;7.75;;
11334;SDS011;5722;42.620;23.374;2023-03-21T10:47:51;11.23;;;8.32;;
11334;SDS011;5722;42.620;23.374;2023-03-21T10:50:22;13.05;;;7.55;;
11334;SDS011;5722;42.620;23.374;2023-03-21T10:53:05;11.68;;;6.80;;
11334;SDS011;5722;42.620;23.374;2023-03-21T10:55:40;13.07;;;7.55;;
11334;SDS011;5722;42.620;23.374;2023-03-21T10:58:13;11.02;;;7.47;;
11334;SDS011;5722;42.620;23.374;2023-03-21T11:00:43;12.88;;;7.15;;
11334;SDS011;5722;42.620;23.374;2023-03-21T11:03:20;14.10;;;8.00;;
11334;SDS011;5722;42.620;23.374;2023-03-21T11:05:52;12.63;;;7.25;;
11334;SDS011;5722;42.620;23.374;2023-03-21T11:08:20;9.65;;;6.57;;
11334;SDS011;5722;42.620;23.374;2023-03-21T11:11:01;17.40;;;8.50;;
11334;SDS011;5722;42.620;23.374;2023-03-21T11:17:01;13.07;;;7.43;;
11334;SDS011;5722;42.620;23.374;2023-03-21T11:22:56;16.10;;;7.95;;
11334;SDS011;5722;42.620;23.374;2023-03-21T11:25:29;11.18;;;6.32;;
11334;SDS011;5722;42.620;23.374;2023-03-21T11:28:04;8.98;;;6.40;;
11334;SDS011;5722;42.620;23.374;2023-03-21T11:30:37;17.33;;;6.97;;
11334;SDS011;5722;42.620;23.374;2023-03-21T11:33:15;10.00;;;6.80;;
11334;SDS011;5722;42.620;23.374;2023-03-21T11:35:58;14.40;;;6.93;;
11334;SDS011;5722;42.620;23.374;2023-03-21T11:38:31;11.10;;;6.28;;
11334;SDS011;5722;42.620;23.374;2023-03-21T11:40:59;15.98;;;6.68;;
11334;SDS011;5722;42.620;23.374;2023-03-21T11:43:30;20.05;;;7.75;;
11334;SDS011;5722;42.620;23.374;2023-03-21T11:46:13;10.88;;;6.43;;
11334;SDS011;5722;42.620;23.374;2023-03-21T11:48:41;10.18;;;5.88;;
11334;SDS011;5722;42.620;23.374;2023-03-21T11:51:16;20.40;;;7.13;;
11334;SDS011;5722;42.620;23.374;2023-03-21T11:53:58;9.27;;;5.80;;
11334;SDS011;5722;42.620;23.374;2023-03-21T11:56:28;22.35;;;7.05;;
11334;SDS011;5722;42.620;23.374;2023-03-21T12:01:47;6.90;;;4.85;;
11334;SDS011;5722;42.620;23.374;2023-03-21T12:04:32;6.13;;;4.97;;
11334;SDS011;5722;42.620;23.374;2023-03-21T12:07:50;8.25;;;4.97;;
11334;SDS011;5722;42.620;23.374;2023-03-21T12:11:00;5.80;;;5.00;;
11334;SDS011;5722;42.620;23.374;2023-03-21T12:13:33;9.00;;;5.80;;
11334;SDS011;5722;42.620;23.374;2023-03-21T12:16:27;10.00;;;5.30;;
11334;SDS011;5722;42.620;23.374;2023-03-21T12:19:11;11.05;;;5.90;;
11334;SDS011;5722;42.620;23.374;2023-03-21T12:22:00;9.70;;;5.10;;
11334;SDS011;5722;42.620;23.374;2023-03-21T12:24:32;9.73;;;5.15;;
11334;SDS011;5722;42.620;23.374;2023-03-21T12:29:50;9.07;;;5.03;;
11334;SDS011;5722;42.620;23.374;2023-03-21T12:32:28;7.80;;;4.88;;
11334;SDS011;5722;42.620;23.374;2023-03-21T12:35:07;7.97;;;4.97;;
11334;SDS011;5722;42.620;23.374;2023-03-21T12:37:48;7.25;;;5.10;;
11334;SDS011;5722;42.620;23.374;2023-03-21T12:40:21;7.65;;;5.43;;
11334;SDS011;5722;42.620;23.374;2023-03-21T12:43:06;7.63;;;5.28;;
11334;SDS011;5722;42.620;23.374;2023-03-21T12:48:38;12.13;;;5.43;;
11334;SDS011;5722;42.620;23.374;2023-03-21T12:51:10;11.27;;;6.25;;
11334;SDS011;5722;42.620;23.374;2023-03-21T12:53:48;10.90;;;5.53;;
11334;SDS011;5722;42.620;23.374;2023-03-21T12:56:33;7.03;;;5.43;;
11334;SDS011;5722;42.620;23.374;2023-03-21T12:59:12;10.50;;;5.70;;
11334;SDS011;5722;42.620;23.374;2023-03-21T13:01:53;10.77;;;5.60;;
11334;SDS011;5722;42.620;23.374;2023-03-21T16:32:27;8.40;;;6.80;;
11334;SDS011;5722;42.620;23.374;2023-03-21T16:40:33;12.40;;;9.27;;
11334;SDS011;5722;42.620;23.374;2023-03-21T16:43:28;11.67;;;9.30;;
11334;SDS011;5722;42.620;23.374;2023-03-21T16:46:09;17.67;;;10.03;;
11334;SDS011;5722;42.620;23.374;2023-03-21T16:48:56;14.87;;;10.97;;
11334;SDS011;5722;42.620;23.374;2023-03-21T16:54:35;14.10;;;10.30;;
11334;SDS011;5722;42.620;23.374;2023-03-21T16:57:34;12.80;;;10.30;;
11334;SDS011;5722;42.620;23.374;2023-03-21T17:03:16;11.67;;;10.30;;
11334;SDS011;5722;42.620;23.374;2023-03-21T17:06:10;13.93;;;11.73;;
11334;SDS011;5722;42.620;23.374;2023-03-21T17:11:49;24.73;;;11.60;;
11334;SDS011;5722;42.620;23.374;2023-03-21T17:14:39;13.90;;;11.30;;
11334;SDS011;5722;42.620;23.374;2023-03-21T17:20:17;14.17;;;11.27;;
11334;SDS011;5722;42.620;23.374;2023-03-21T17:51:29;14.37;;;11.70;;
11334;SDS011;5722;42.620;23.374;2023-03-21T21:01:53;14.70;;;13.10;;
11334;SDS011;5722;42.620;23.374;2023-03-21T21:04:59;15.97;;;13.53;;
11334;SDS011;5722;42.620;23.374;2023-03-21T21:07:43;14.50;;;13.00;;
11334;SDS011;5722;42.620;23.374;2023-03-21T21:10:26;25.93;;;21.63;;
11334;SDS011;5722;42.620;23.374;2023-03-21T21:13:04;15.70;;;14.17;;
11334;SDS011;5722;42.620;23.374;2023-03-21T21:15:52;19.67;;;14.37;;
11334;SDS011;5722;42.620;23.374;2023-03-21T22:02:29;19.63;;;17.63;;
11334;SDS011;5722;42.620;23.374;2023-03-21T22:04:59;19.20;;;16.60;;
11334;SDS011;5722;42.620;23.374;2023-03-21T22:07:31;17.90;;;15.50;;
11334;SDS011;5722;42.620;23.374;2023-03-21T22:10:01;15.07;;;13.57;;
11334;SDS011;5722;42.620;23.374;2023-03-21T22:12:29;16.17;;;13.60;;
11334;SDS011;5722;42.620;23.374;2023-03-21T22:15:03;14.00;;;11.87;;
11334;SDS011;5722;42.620;23.374;2023-03-21T22:17:34;9.97;;;8.97;;
11334;SDS011;5722;42.620;23.374;2023-03-21T22:20:04;8.20;;;7.40;;
11334;SDS011;5722;42.620;23.374;2023-03-21T22:22:38;7.60;;;6.83;;
11334;SDS011;5722;42.620;23.374;2023-03-21T22:25:16;8.53;;;7.00;;
11334;SDS011;5722;42.620;23.374;2023-03-21T22:27:56;7.30;;;6.60;;
11334;SDS011;5722;42.620;23.374;2023-03-21T22:30:33;6.53;;;5.77;;
11334;SDS011;5722;42.620;23.374;2023-03-21T22:35:56;6.00;;;5.50;;
11334;SDS011;5722;42.620;23.374;2023-03-21T22:38:45;6.73;;;5.67;;
11334;SDS011;5722;42.620;23.374;2023-03-21T22:41:20;8.37;;;7.47;;
11334;SDS011;5722;42.620;23.374;2023-03-21T22:43:51;15.27;;;11.77;;
11334;SDS011;5722;42.620;23.374;2023-03-21T22:46:25;9.53;;;7.67;;
11334;SDS011;5722;42.620;23.374;2023-03-21T22:48:55;8.50;;;7.60;;
11334;SDS011;5722;42.620;23.374;2023-03-21T22:51:26;8.50;;;7.13;;
11334;SDS011;5722;42.620;23.374;2023-03-21T22:53:57;9.20;;;7.20;;
11334;SDS011;5722;42.620;23.374;2023-03-21T22:56:24;7.50;;;6.80;;
11334;SDS011;5722;42.620;23.374;2023-03-21T22:59:01;7.13;;;6.40;;
11334;SDS011;5722;42.620;23.374;2023-03-21T23:01:37;12.50;;;10.13;;
11334;SDS011;5722;42.620;23.374;2023-03-21T23:04:08;15.40;;;11.67;;
11334;SDS011;5722;42.620;23.374;2023-03-21T23:06:42;15.17;;;11.33;;
11334;SDS011;5722;42.620;23.374;2023-03-21T23:09:21;12.67;;;9.57;;
11334;SDS011;5722;42.620;23.374;2023-03-21T23:11:52;12.40;;;9.33;;
11334;SDS011;5722;42.620;23.374;2023-03-21T23:14:22;13.03;;;10.17;;
11334;SDS011;5722;42.620;23.374;2023-03-21T23:16:51;20.50;;;14.50;;
11334;SDS011;5722;42.620;23.374;2023-03-21T23:19:25;20.03;;;13.93;;
11334;SDS011;5722;42.620;23.374;2023-03-21T23:21:59;19.03;;;14.47;;
11334;SDS011;5722;42.620;23.374;2023-03-21T23:24:31;18.00;;;13.87;;
11334;SDS011;5722;42.620;23.374;2023-03-21T23:27:02;16.17;;;12.27;;
11334;SDS011;5722;42.620;23.374;2023-03-21T23:29:44;18.40;;;12.93;;
11334;SDS011;5722;42.620;23.374;2023-03-21T23:32:25;14.97;;;11.37;;
11334;SDS011;5722;42.620;23.374;2023-03-21T23:35:00;12.67;;;10.87;;
11334;SDS011;5722;42.620;23.374;2023-03-21T23:37:35;20.40;;;15.97;;
11334;SDS011;5722;42.620;23.374;2023-03-21T23:40:17;15.03;;;10.83;;
11334;SDS011;5722;42.620;23.374;2023-03-21T23:42:51;12.87;;;11.13;;
11334;SDS011;5722;42.620;23.374;2023-03-21T23:45:24;11.93;;;10.00;;
11334;SDS011;5722;42.620;23.374;2023-03-21T23:50:27;10.60;;;9.47;;
11334;SDS011;5722;42.620;23.374;2023-03-21T23:53:05;9.07;;;8.17;;
11334;SDS011;5722;42.620;23.374;2023-03-21T23:55:39;7.53;;;6.83;;
11334;SDS011;5722;42.620;23.374;2023-03-21T23:58:14;7.80;;;7.10;;
